Edenton, Ohio
Current Conditions -  °F | °C
As of 4:54 PM on Tuesday 21 Oct 2014 (Local Time) from KILN Reporting Station
Overcast Overcast  
Wind Chill: 51°   Ceiling: 3300
Heat Index: 51°   Visibility: 10mi
Dew Point: 42°   Wind: 10mph
Humidity: 71%   Direction: 330°NNW
Pressure: 30.05"   Gusts: NA
Location:  39.2751°N, 84.0815°W
Report Text: KILN 212054Z AUTO 33009KT 10SM FEW022 BKN033 OVC048 11/06 A3005 RMK AO2 RAE11 SLP187 P0000 60000 T01060056 53009
Loading
Personal Weather Stations






























Interactive Weather Map
Tropical Storm Tracking
New forecast layout! Learn more

10-Day Weather Forecast

Advertisements
Track Severe Weather on mobile